sensor_id;sensor_type;location;lat;lon;timestamp;temperature;humidity
21602;DHT22;10963;50.934;4.668;2023-08-06T00:01:29;16.30;99.90
21602;DHT22;10963;50.934;4.668;2023-08-06T00:03:55;16.30;99.90
21602;DHT22;10963;50.934;4.668;2023-08-06T00:06:21;16.30;99.90
21602;DHT22;10963;50.934;4.668;2023-08-06T00:08:49;16.30;99.90
21602;DHT22;10963;50.934;4.668;2023-08-06T00:11:14;16.30;99.90
21602;DHT22;10963;50.934;4.668;2023-08-06T00:13:40;16.30;99.90
21602;DHT22;10963;50.934;4.668;2023-08-06T00:16:15;16.20;99.90
21602;DHT22;10963;50.934;4.668;2023-08-06T00:18:41;16.20;99.90
21602;DHT22;10963;50.934;4.668;2023-08-06T00:21:06;16.10;99.90
21602;DHT22;10963;50.934;4.668;2023-08-06T00:23:32;16.10;99.90
21602;DHT22;10963;50.934;4.668;2023-08-06T00:25:58;16.20;99.90
21602;DHT22;10963;50.934;4.668;2023-08-06T00:28:23;16.20;99.90
21602;DHT22;10963;50.934;4.668;2023-08-06T00:30:53;16.20;99.90
21602;DHT22;10963;50.934;4.668;2023-08-06T00:33:22;16.10;99.90
21602;DHT22;10963;50.934;4.668;2023-08-06T00:35:53;16.20;99.90
21602;DHT22;10963;50.934;4.668;2023-08-06T00:38:18;16.30;99.90
21602;DHT22;10963;50.934;4.668;2023-08-06T00:40:44;16.30;99.90
21602;DHT22;10963;50.934;4.668;2023-08-06T00:43:10;16.30;99.90
21602;DHT22;10963;50.934;4.668;2023-08-06T00:45:38;16.30;99.90
21602;DHT22;10963;50.934;4.668;2023-08-06T00:48:05;16.40;99.90
21602;DHT22;10963;50.934;4.668;2023-08-06T00:50:32;16.50;99.90
21602;DHT22;10963;50.934;4.668;2023-08-06T00:52:59;16.50;99.90
21602;DHT22;10963;50.934;4.668;2023-08-06T00:55:25;16.50;99.90
21602;DHT22;10963;50.934;4.668;2023-08-06T00:57:51;16.50;99.90
21602;DHT22;10963;50.934;4.668;2023-08-06T01:00:22;16.50;99.90
21602;DHT22;10963;50.934;4.668;2023-08-06T01:02:50;16.50;99.90
21602;DHT22;10963;50.934;4.668;2023-08-06T01:05:16;16.50;99.90
21602;DHT22;10963;50.934;4.668;2023-08-06T01:08:11;16.50;99.90
21602;DHT22;10963;50.934;4.668;2023-08-06T01:13:37;16.50;99.90
21602;DHT22;10963;50.934;4.668;2023-08-06T01:16:07;16.50;99.90
21602;DHT22;10963;50.934;4.668;2023-08-06T01:18:34;16.50;99.90
21602;DHT22;10963;50.934;4.668;2023-08-06T01:21:01;16.50;99.90
21602;DHT22;10963;50.934;4.668;2023-08-06T01:23:29;16.40;99.90
21602;DHT22;10963;50.934;4.668;2023-08-06T01:28:48;16.40;99.90
21602;DHT22;10963;50.934;4.668;2023-08-06T01:31:21;16.40;99.90
21602;DHT22;10963;50.934;4.668;2023-08-06T01:33:48;16.50;99.90
21602;DHT22;10963;50.934;4.668;2023-08-06T01:36:19;16.50;99.90
21602;DHT22;10963;50.934;4.668;2023-08-06T01:38:46;16.60;99.90
21602;DHT22;10963;50.934;4.668;2023-08-06T01:41:14;16.50;99.90
21602;DHT22;10963;50.934;4.668;2023-08-06T01:43:42;16.60;99.90
21602;DHT22;10963;50.934;4.668;2023-08-06T01:46:10;16.60;99.90
21602;DHT22;10963;50.934;4.668;2023-08-06T01:48:38;16.60;99.90
21602;DHT22;10963;50.934;4.668;2023-08-06T01:51:07;16.60;99.90
21602;DHT22;10963;50.934;4.668;2023-08-06T01:53:33;16.50;99.90
21602;DHT22;10963;50.934;4.668;2023-08-06T01:55:59;16.50;99.90
21602;DHT22;10963;50.934;4.668;2023-08-06T01:58:25;16.50;99.90
21602;DHT22;10963;50.934;4.668;2023-08-06T02:00:53;16.50;99.90
21602;DHT22;10963;50.934;4.668;2023-08-06T02:03:21;16.60;99.90
21602;DHT22;10963;50.934;4.668;2023-08-06T02:05:49;16.60;99.90
21602;DHT22;10963;50.934;4.668;2023-08-06T02:08:14;16.60;99.90
21602;DHT22;10963;50.934;4.668;2023-08-06T02:10:42;16.60;99.90
21602;DHT22;10963;50.934;4.668;2023-08-06T02:13:10;16.60;99.90
21602;DHT22;10963;50.934;4.668;2023-08-06T02:15:41;16.60;99.90
21602;DHT22;10963;50.934;4.668;2023-08-06T02:18:09;16.60;99.90
21602;DHT22;10963;50.934;4.668;2023-08-06T02:20:35;16.60;99.90
21602;DHT22;10963;50.934;4.668;2023-08-06T02:23:00;16.60;99.90
21602;DHT22;10963;50.934;4.668;2023-08-06T02:25:26;16.70;99.90
21602;DHT22;10963;50.934;4.668;2023-08-06T02:27:52;16.70;99.90
21602;DHT22;10963;50.934;4.668;2023-08-06T02:30:17;16.70;99.90
21602;DHT22;10963;50.934;4.668;2023-08-06T02:32:44;16.70;99.90
21602;DHT22;10963;50.934;4.668;2023-08-06T02:35:09;16.70;99.90
21602;DHT22;10963;50.934;4.668;2023-08-06T02:37:35;16.80;99.90
21602;DHT22;10963;50.934;4.668;2023-08-06T02:40:01;16.80;99.90
21602;DHT22;10963;50.934;4.668;2023-08-06T02:42:29;16.80;99.90
21602;DHT22;10963;50.934;4.668;2023-08-06T02:44:55;16.70;99.90
21602;DHT22;10963;50.934;4.668;2023-08-06T02:47:23;16.60;99.90
21602;DHT22;10963;50.934;4.668;2023-08-06T02:49:49;16.60;99.90
21602;DHT22;10963;50.934;4.668;2023-08-06T02:52:15;16.60;99.90
21602;DHT22;10963;50.934;4.668;2023-08-06T02:54:43;16.70;99.90
21602;DHT22;10963;50.934;4.668;2023-08-06T02:57:13;16.70;99.90
21602;DHT22;10963;50.934;4.668;2023-08-06T02:59:39;16.60;99.90
21602;DHT22;10963;50.934;4.668;2023-08-06T03:02:05;16.70;99.90
21602;DHT22;10963;50.934;4.668;2023-08-06T03:04:30;16.70;99.90
21602;DHT22;10963;50.934;4.668;2023-08-06T03:06:56;16.70;99.90
21602;DHT22;10963;50.934;4.668;2023-08-06T03:09:22;16.80;99.90
21602;DHT22;10963;50.934;4.668;2023-08-06T03:11:48;16.90;99.90
21602;DHT22;10963;50.934;4.668;2023-08-06T03:14:14;17.00;99.90
21602;DHT22;10963;50.934;4.668;2023-08-06T03:16:39;17.00;99.90
21602;DHT22;10963;50.934;4.668;2023-08-06T03:19:05;16.80;99.90
21602;DHT22;10963;50.934;4.668;2023-08-06T03:21:31;16.80;99.90
21602;DHT22;10963;50.934;4.668;2023-08-06T03:23:56;16.70;99.90
21602;DHT22;10963;50.934;4.668;2023-08-06T03:26:22;16.70;99.90
21602;DHT22;10963;50.934;4.668;2023-08-06T03:28:48;16.60;99.90
21602;DHT22;10963;50.934;4.668;2023-08-06T03:31:13;16.70;99.90
21602;DHT22;10963;50.934;4.668;2023-08-06T03:33:41;16.70;99.90
21602;DHT22;10963;50.934;4.668;2023-08-06T03:36:07;16.80;99.90
21602;DHT22;10963;50.934;4.668;2023-08-06T03:38:33;16.80;99.90
21602;DHT22;10963;50.934;4.668;2023-08-06T03:41:01;16.70;99.90
21602;DHT22;10963;50.934;4.668;2023-08-06T03:43:29;16.70;99.90
21602;DHT22;10963;50.934;4.668;2023-08-06T03:45:54;16.70;99.90
21602;DHT22;10963;50.934;4.668;2023-08-06T03:48:20;16.60;99.90
21602;DHT22;10963;50.934;4.668;2023-08-06T03:50:48;16.70;99.90
21602;DHT22;10963;50.934;4.668;2023-08-06T03:53:15;16.70;99.90
21602;DHT22;10963;50.934;4.668;2023-08-06T03:55:42;16.70;99.90
21602;DHT22;10963;50.934;4.668;2023-08-06T03:58:07;16.80;99.90
21602;DHT22;10963;50.934;4.668;2023-08-06T04:00:35;16.80;99.90
21602;DHT22;10963;50.934;4.668;2023-08-06T04:03:01;16.90;99.90
21602;DHT22;10963;50.934;4.668;2023-08-06T04:05:26;16.80;99.90
21602;DHT22;10963;50.934;4.668;2023-08-06T04:07:52;16.80;99.90
21602;DHT22;10963;50.934;4.668;2023-08-06T04:10:18;16.70;99.90
21602;DHT22;10963;50.934;4.668;2023-08-06T04:12:46;16.60;99.90
21602;DHT22;10963;50.934;4.668;2023-08-06T04:15:14;16.70;99.90
21602;DHT22;10963;50.934;4.668;2023-08-06T04:17:40;16.80;99.90
21602;DHT22;10963;50.934;4.668;2023-08-06T04:20:06;16.80;99.90
21602;DHT22;10963;50.934;4.668;2023-08-06T04:22:32;16.60;99.90
21602;DHT22;10963;50.934;4.668;2023-08-06T04:24:57;16.70;99.90
21602;DHT22;10963;50.934;4.668;2023-08-06T04:27:23;16.80;99.90
21602;DHT22;10963;50.934;4.668;2023-08-06T04:29:49;16.80;99.90
21602;DHT22;10963;50.934;4.668;2023-08-06T04:32:14;16.80;99.90
21602;DHT22;10963;50.934;4.668;2023-08-06T04:34:40;16.80;99.90
21602;DHT22;10963;50.934;4.668;2023-08-06T04:37:08;16.80;99.90
21602;DHT22;10963;50.934;4.668;2023-08-06T04:39:36;16.70;99.90
21602;DHT22;10963;50.934;4.668;2023-08-06T04:42:04;16.50;99.90
21602;DHT22;10963;50.934;4.668;2023-08-06T04:44:32;16.30;99.90
21602;DHT22;10963;50.934;4.668;2023-08-06T04:46:58;16.10;99.90
21602;DHT22;10963;50.934;4.668;2023-08-06T04:49:27;16.00;99.90
21602;DHT22;10963;50.934;4.668;2023-08-06T04:51:53;15.90;99.90
21602;DHT22;10963;50.934;4.668;2023-08-06T04:54:18;15.90;99.90
21602;DHT22;10963;50.934;4.668;2023-08-06T04:56:47;15.90;99.90
21602;DHT22;10963;50.934;4.668;2023-08-06T04:59:12;15.90;99.90
21602;DHT22;10963;50.934;4.668;2023-08-06T05:01:38;15.90;99.90
21602;DHT22;10963;50.934;4.668;2023-08-06T05:04:04;15.80;99.90
21602;DHT22;10963;50.934;4.668;2023-08-06T05:06:30;15.70;99.90
21602;DHT22;10963;50.934;4.668;2023-08-06T05:08:58;15.60;99.90
21602;DHT22;10963;50.934;4.668;2023-08-06T05:11:24;15.30;99.90
21602;DHT22;10963;50.934;4.668;2023-08-06T05:13:50;15.20;99.90
21602;DHT22;10963;50.934;4.668;2023-08-06T05:16:18;15.20;99.90
21602;DHT22;10963;50.934;4.668;2023-08-06T05:18:46;15.10;99.90
21602;DHT22;10963;50.934;4.668;2023-08-06T05:21:16;15.00;99.90
21602;DHT22;10963;50.934;4.668;2023-08-06T05:23:47;14.90;99.90
21602;DHT22;10963;50.934;4.668;2023-08-06T05:26:12;14.90;99.90
21602;DHT22;10963;50.934;4.668;2023-08-06T05:28:40;14.90;99.90
21602;DHT22;10963;50.934;4.668;2023-08-06T05:31:06;14.90;99.90
21602;DHT22;10963;50.934;4.668;2023-08-06T05:33:32;15.00;99.90
21602;DHT22;10963;50.934;4.668;2023-08-06T05:36:00;15.10;99.90
21602;DHT22;10963;50.934;4.668;2023-08-06T05:38:30;15.10;99.90
21602;DHT22;10963;50.934;4.668;2023-08-06T05:40:55;15.10;99.90
21602;DHT22;10963;50.934;4.668;2023-08-06T05:43:24;15.00;99.90
21602;DHT22;10963;50.934;4.668;2023-08-06T05:45:50;15.10;99.90
21602;DHT22;10963;50.934;4.668;2023-08-06T05:48:16;15.10;99.90
21602;DHT22;10963;50.934;4.668;2023-08-06T05:50:42;15.10;99.90
21602;DHT22;10963;50.934;4.668;2023-08-06T05:53:08;15.10;99.90
21602;DHT22;10963;50.934;4.668;2023-08-06T05:55:36;15.00;99.90
21602;DHT22;10963;50.934;4.668;2023-08-06T05:58:04;15.00;99.90
21602;DHT22;10963;50.934;4.668;2023-08-06T06:00:34;15.00;99.90
21602;DHT22;10963;50.934;4.668;2023-08-06T06:03:02;15.00;99.90
21602;DHT22;10963;50.934;4.668;2023-08-06T06:05:32;15.00;99.90
21602;DHT22;10963;50.934;4.668;2023-08-06T06:08:00;15.10;99.90
21602;DHT22;10963;50.934;4.668;2023-08-06T06:10:26;15.00;99.90
21602;DHT22;10963;50.934;4.668;2023-08-06T06:12:52;15.00;99.90
21602;DHT22;10963;50.934;4.668;2023-08-06T06:15:20;15.10;99.90
21602;DHT22;10963;50.934;4.668;2023-08-06T06:17:48;15.20;99.90
21602;DHT22;10963;50.934;4.668;2023-08-06T06:20:16;15.20;99.90
21602;DHT22;10963;50.934;4.668;2023-08-06T06:22:44;15.30;99.90
21602;DHT22;10963;50.934;4.668;2023-08-06T06:25:10;15.40;99.90
21602;DHT22;10963;50.934;4.668;2023-08-06T06:27:38;15.50;99.90
21602;DHT22;10963;50.934;4.668;2023-08-06T06:30:04;15.40;99.90
21602;DHT22;10963;50.934;4.668;2023-08-06T06:32:32;15.30;99.90
21602;DHT22;10963;50.934;4.668;2023-08-06T06:35:01;15.30;99.90
21602;DHT22;10963;50.934;4.668;2023-08-06T06:37:29;15.30;99.90
21602;DHT22;10963;50.934;4.668;2023-08-06T06:39:58;15.40;99.90
21602;DHT22;10963;50.934;4.668;2023-08-06T06:42:26;15.30;99.90
21602;DHT22;10963;50.934;4.668;2023-08-06T06:44:51;15.40;99.90
21602;DHT22;10963;50.934;4.668;2023-08-06T06:47:23;15.50;99.90
21602;DHT22;10963;50.934;4.668;2023-08-06T06:49:51;15.60;99.90
21602;DHT22;10963;50.934;4.668;2023-08-06T06:52:21;15.50;99.90
21602;DHT22;10963;50.934;4.668;2023-08-06T06:54:49;15.60;99.90
21602;DHT22;10963;50.934;4.668;2023-08-06T06:57:15;15.70;99.90
21602;DHT22;10963;50.934;4.668;2023-08-06T06:59:43;15.70;99.90
21602;DHT22;10963;50.934;4.668;2023-08-06T07:02:11;15.80;99.90
21602;DHT22;10963;50.934;4.668;2023-08-06T07:04:37;15.90;99.90
21602;DHT22;10963;50.934;4.668;2023-08-06T07:07:03;15.80;99.90
21602;DHT22;10963;50.934;4.668;2023-08-06T07:09:28;15.80;99.90
21602;DHT22;10963;50.934;4.668;2023-08-06T07:11:54;15.70;99.90
21602;DHT22;10963;50.934;4.668;2023-08-06T07:14:22;15.80;99.90
21602;DHT22;10963;50.934;4.668;2023-08-06T07:16:50;15.80;99.90
21602;DHT22;10963;50.934;4.668;2023-08-06T07:19:16;15.80;99.90
21602;DHT22;10963;50.934;4.668;2023-08-06T07:21:42;15.90;99.90
21602;DHT22;10963;50.934;4.668;2023-08-06T07:24:10;15.80;99.90
21602;DHT22;10963;50.934;4.668;2023-08-06T07:26:37;15.80;99.90
21602;DHT22;10963;50.934;4.668;2023-08-06T07:29:03;15.70;99.90
21602;DHT22;10963;50.934;4.668;2023-08-06T07:31:28;15.90;99.90
21602;DHT22;10963;50.934;4.668;2023-08-06T07:33:56;15.90;99.90
21602;DHT22;10963;50.934;4.668;2023-08-06T07:36:22;16.00;99.90
21602;DHT22;10963;50.934;4.668;2023-08-06T07:38:50;16.00;99.90
21602;DHT22;10963;50.934;4.668;2023-08-06T07:41:23;16.10;99.90
21602;DHT22;10963;50.934;4.668;2023-08-06T07:43:49;16.00;99.90
21602;DHT22;10963;50.934;4.668;2023-08-06T07:46:17;15.80;99.90
21602;DHT22;10963;50.934;4.668;2023-08-06T07:48:45;15.80;99.90
21602;DHT22;10963;50.934;4.668;2023-08-06T07:51:12;16.00;99.90
21602;DHT22;10963;50.934;4.668;2023-08-06T07:53:40;15.90;99.90
21602;DHT22;10963;50.934;4.668;2023-08-06T07:56:08;15.90;99.90
21602;DHT22;10963;50.934;4.668;2023-08-06T07:58:34;16.00;99.90
21602;DHT22;10963;50.934;4.668;2023-08-06T08:01:00;16.10;99.90
21602;DHT22;10963;50.934;4.668;2023-08-06T08:03:28;16.10;99.90
21602;DHT22;10963;50.934;4.668;2023-08-06T08:05:55;16.20;99.90
21602;DHT22;10963;50.934;4.668;2023-08-06T08:08:29;16.20;99.90
21602;DHT22;10963;50.934;4.668;2023-08-06T08:10:54;16.10;99.90
21602;DHT22;10963;50.934;4.668;2023-08-06T08:13:21;16.10;99.90
21602;DHT22;10963;50.934;4.668;2023-08-06T08:15:49;16.10;99.90
21602;DHT22;10963;50.934;4.668;2023-08-06T08:18:17;16.10;99.90
21602;DHT22;10963;50.934;4.668;2023-08-06T08:20:45;16.20;99.90
21602;DHT22;10963;50.934;4.668;2023-08-06T08:23:18;16.30;99.90
21602;DHT22;10963;50.934;4.668;2023-08-06T08:25:46;16.60;99.90
21602;DHT22;10963;50.934;4.668;2023-08-06T08:28:12;16.80;99.90
21602;DHT22;10963;50.934;4.668;2023-08-06T08:30:37;16.80;99.90
21602;DHT22;10963;50.934;4.668;2023-08-06T08:33:03;17.20;99.90
21602;DHT22;10963;50.934;4.668;2023-08-06T08:35:29;17.20;99.90
21602;DHT22;10963;50.934;4.668;2023-08-06T08:37:54;17.20;99.90
21602;DHT22;10963;50.934;4.668;2023-08-06T08:40:22;17.30;99.90
21602;DHT22;10963;50.934;4.668;2023-08-06T08:42:52;17.20;99.90
21602;DHT22;10963;50.934;4.668;2023-08-06T08:45:22;17.10;99.90
21602;DHT22;10963;50.934;4.668;2023-08-06T08:47:53;17.30;99.90
21602;DHT22;10963;50.934;4.668;2023-08-06T08:50:20;17.60;99.90
21602;DHT22;10963;50.934;4.668;2023-08-06T08:52:50;17.90;99.90
21602;DHT22;10963;50.934;4.668;2023-08-06T08:55:19;17.80;99.90
21602;DHT22;10963;50.934;4.668;2023-08-06T08:57:46;17.60;99.90
21602;DHT22;10963;50.934;4.668;2023-08-06T09:00:14;17.30;99.90
21602;DHT22;10963;50.934;4.668;2023-08-06T09:02:42;17.30;99.90
21602;DHT22;10963;50.934;4.668;2023-08-06T09:05:11;17.00;99.90
21602;DHT22;10963;50.934;4.668;2023-08-06T09:07:48;16.70;99.90
21602;DHT22;10963;50.934;4.668;2023-08-06T09:10:16;16.60;99.90
21602;DHT22;10963;50.934;4.668;2023-08-06T09:12:45;16.70;99.90
21602;DHT22;10963;50.934;4.668;2023-08-06T09:15:11;16.70;99.90
21602;DHT22;10963;50.934;4.668;2023-08-06T09:17:41;16.60;99.90
21602;DHT22;10963;50.934;4.668;2023-08-06T09:20:13;16.60;99.90
21602;DHT22;10963;50.934;4.668;2023-08-06T09:22:41;16.50;99.90
21602;DHT22;10963;50.934;4.668;2023-08-06T09:25:08;16.50;99.90
21602;DHT22;10963;50.934;4.668;2023-08-06T09:27:39;16.40;99.90
21602;DHT22;10963;50.934;4.668;2023-08-06T09:30:07;16.20;99.90
21602;DHT22;10963;50.934;4.668;2023-08-06T09:32:48;16.10;99.90
21602;DHT22;10963;50.934;4.668;2023-08-06T09:35:19;16.30;99.90
21602;DHT22;10963;50.934;4.668;2023-08-06T09:37:45;16.40;99.90
21602;DHT22;10963;50.934;4.668;2023-08-06T09:40:32;16.50;99.90
21602;DHT22;10963;50.934;4.668;2023-08-06T09:42:59;16.50;99.90
21602;DHT22;10963;50.934;4.668;2023-08-06T09:45:30;16.50;99.90
21602;DHT22;10963;50.934;4.668;2023-08-06T09:47:58;16.60;99.90
21602;DHT22;10963;50.934;4.668;2023-08-06T09:50:28;16.70;99.90
21602;DHT22;10963;50.934;4.668;2023-08-06T09:52:56;16.70;99.90
21602;DHT22;10963;50.934;4.668;2023-08-06T09:55:25;16.80;99.90
21602;DHT22;10963;50.934;4.668;2023-08-06T09:57:59;16.90;99.90
21602;DHT22;10963;50.934;4.668;2023-08-06T10:00:25;17.10;99.90
21602;DHT22;10963;50.934;4.668;2023-08-06T10:02:54;16.90;99.90
21602;DHT22;10963;50.934;4.668;2023-08-06T10:05:24;16.60;99.90
21602;DHT22;10963;50.934;4.668;2023-08-06T10:07:51;16.50;99.90
21602;DHT22;10963;50.934;4.668;2023-08-06T10:10:17;16.60;99.90
21602;DHT22;10963;50.934;4.668;2023-08-06T10:12:54;16.70;99.90
21602;DHT22;10963;50.934;4.668;2023-08-06T10:15:26;16.60;99.90
21602;DHT22;10963;50.934;4.668;2023-08-06T10:17:57;16.70;99.90
21602;DHT22;10963;50.934;4.668;2023-08-06T10:20:23;16.50;99.90
21602;DHT22;10963;50.934;4.668;2023-08-06T10:23:07;16.30;99.90
21602;DHT22;10963;50.934;4.668;2023-08-06T10:25:39;15.80;99.90
21602;DHT22;10963;50.934;4.668;2023-08-06T10:28:10;15.80;99.90
21602;DHT22;10963;50.934;4.668;2023-08-06T10:30:44;15.80;99.90
21602;DHT22;10963;50.934;4.668;2023-08-06T10:33:15;15.70;99.90
21602;DHT22;10963;50.934;4.668;2023-08-06T10:35:46;15.80;99.90
21602;DHT22;10963;50.934;4.668;2023-08-06T10:38:22;15.80;99.90
21602;DHT22;10963;50.934;4.668;2023-08-06T10:43:29;16.00;99.90
21602;DHT22;10963;50.934;4.668;2023-08-06T10:45:57;15.90;99.90
21602;DHT22;10963;50.934;4.668;2023-08-06T10:48:36;15.90;99.90
21602;DHT22;10963;50.934;4.668;2023-08-06T10:51:06;15.80;99.90
21602;DHT22;10963;50.934;4.668;2023-08-06T10:53:32;15.80;99.90
21602;DHT22;10963;50.934;4.668;2023-08-06T10:55:58;15.80;99.90
21602;DHT22;10963;50.934;4.668;2023-08-06T10:58:24;15.80;99.90
21602;DHT22;10963;50.934;4.668;2023-08-06T11:00:52;15.70;99.90
21602;DHT22;10963;50.934;4.668;2023-08-06T11:03:20;15.70;99.90
21602;DHT22;10963;50.934;4.668;2023-08-06T11:05:51;15.70;99.90
21602;DHT22;10963;50.934;4.668;2023-08-06T11:08:28;15.80;99.90
21602;DHT22;10963;50.934;4.668;2023-08-06T11:10:54;15.90;99.90
21602;DHT22;10963;50.934;4.668;2023-08-06T11:13:21;16.00;99.90
21602;DHT22;10963;50.934;4.668;2023-08-06T11:15:51;16.00;99.90
21602;DHT22;10963;50.934;4.668;2023-08-06T11:18:20;15.90;99.90
21602;DHT22;10963;50.934;4.668;2023-08-06T11:20:45;15.80;99.90
21602;DHT22;10963;50.934;4.668;2023-08-06T11:23:11;15.70;99.90
21602;DHT22;10963;50.934;4.668;2023-08-06T11:25:45;15.60;99.90
21602;DHT22;10963;50.934;4.668;2023-08-06T11:28:14;15.60;99.90
21602;DHT22;10963;50.934;4.668;2023-08-06T11:30:42;15.60;99.90
21602;DHT22;10963;50.934;4.668;2023-08-06T11:33:10;15.70;99.90
21602;DHT22;10963;50.934;4.668;2023-08-06T11:35:38;15.60;99.90
21602;DHT22;10963;50.934;4.668;2023-08-06T11:38:07;15.50;99.90
21602;DHT22;10963;50.934;4.668;2023-08-06T11:40:35;15.50;99.90
21602;DHT22;10963;50.934;4.668;2023-08-06T11:43:03;15.60;99.90
21602;DHT22;10963;50.934;4.668;2023-08-06T11:45:30;15.50;99.90
21602;DHT22;10963;50.934;4.668;2023-08-06T11:47:56;15.50;99.90
21602;DHT22;10963;50.934;4.668;2023-08-06T11:50:26;15.50;99.90
21602;DHT22;10963;50.934;4.668;2023-08-06T11:53:02;15.40;99.90
21602;DHT22;10963;50.934;4.668;2023-08-06T11:55:35;15.40;99.90
21602;DHT22;10963;50.934;4.668;2023-08-06T11:58:04;15.50;99.90
21602;DHT22;10963;50.934;4.668;2023-08-06T12:00:32;15.50;99.90
21602;DHT22;10963;50.934;4.668;2023-08-06T12:03:01;15.50;99.90
21602;DHT22;10963;50.934;4.668;2023-08-06T12:05:34;15.50;99.90
21602;DHT22;10963;50.934;4.668;2023-08-06T12:08:01;15.70;99.90
21602;DHT22;10963;50.934;4.668;2023-08-06T12:10:31;15.70;99.90
21602;DHT22;10963;50.934;4.668;2023-08-06T12:12:57;15.80;99.90
21602;DHT22;10963;50.934;4.668;2023-08-06T12:15:23;15.90;99.90
21602;DHT22;10963;50.934;4.668;2023-08-06T12:17:49;16.10;99.90
21602;DHT22;10963;50.934;4.668;2023-08-06T12:20:20;15.90;99.90
21602;DHT22;10963;50.934;4.668;2023-08-06T12:22:46;15.80;99.90
21602;DHT22;10963;50.934;4.668;2023-08-06T12:25:12;15.80;99.90
21602;DHT22;10963;50.934;4.668;2023-08-06T12:27:40;16.00;99.90
21602;DHT22;10963;50.934;4.668;2023-08-06T12:30:07;16.00;99.90
21602;DHT22;10963;50.934;4.668;2023-08-06T12:32:33;15.90;99.90
21602;DHT22;10963;50.934;4.668;2023-08-06T12:34:59;16.10;99.90
21602;DHT22;10963;50.934;4.668;2023-08-06T12:37:28;16.10;99.90
21602;DHT22;10963;50.934;4.668;2023-08-06T12:39:56;16.00;99.90
21602;DHT22;10963;50.934;4.668;2023-08-06T12:42:22;16.00;99.90
21602;DHT22;10963;50.934;4.668;2023-08-06T12:44:51;15.90;99.90
21602;DHT22;10963;50.934;4.668;2023-08-06T12:47:21;15.80;99.90
21602;DHT22;10963;50.934;4.668;2023-08-06T12:49:47;15.80;99.90
21602;DHT22;10963;50.934;4.668;2023-08-06T12:52:13;15.80;99.90
21602;DHT22;10963;50.934;4.668;2023-08-06T12:54:44;15.90;99.90
21602;DHT22;10963;50.934;4.668;2023-08-06T12:57:11;15.70;99.90
21602;DHT22;10963;50.934;4.668;2023-08-06T12:59:39;15.60;99.90
21602;DHT22;10963;50.934;4.668;2023-08-06T13:02:07;15.40;99.90
21602;DHT22;10963;50.934;4.668;2023-08-06T13:04:33;15.50;99.90
21602;DHT22;10963;50.934;4.668;2023-08-06T13:06:59;15.60;99.90
21602;DHT22;10963;50.934;4.668;2023-08-06T13:09:25;15.60;99.90
21602;DHT22;10963;50.934;4.668;2023-08-06T13:11:52;15.40;99.90
21602;DHT22;10963;50.934;4.668;2023-08-06T13:14:23;15.60;99.90
21602;DHT22;10963;50.934;4.668;2023-08-06T13:16:49;15.60;99.90
21602;DHT22;10963;50.934;4.668;2023-08-06T13:19:14;15.60;99.90
21602;DHT22;10963;50.934;4.668;2023-08-06T13:24:06;15.70;99.90
21602;DHT22;10963;50.934;4.668;2023-08-06T13:26:32;15.90;99.90
21602;DHT22;10963;50.934;4.668;2023-08-06T13:28:58;16.00;99.90
21602;DHT22;10963;50.934;4.668;2023-08-06T13:31:25;16.00;99.90
21602;DHT22;10963;50.934;4.668;2023-08-06T13:33:57;16.00;99.90
21602;DHT22;10963;50.934;4.668;2023-08-06T13:36:31;16.00;99.90
21602;DHT22;10963;50.934;4.668;2023-08-06T13:38:57;15.90;99.90
21602;DHT22;10963;50.934;4.668;2023-08-06T13:41:23;15.80;99.90
21602;DHT22;10963;50.934;4.668;2023-08-06T13:43:51;15.80;99.90
21602;DHT22;10963;50.934;4.668;2023-08-06T13:46:18;15.70;99.90
21602;DHT22;10963;50.934;4.668;2023-08-06T13:48:48;15.60;99.90
21602;DHT22;10963;50.934;4.668;2023-08-06T13:51:19;15.40;99.90
21602;DHT22;10963;50.934;4.668;2023-08-06T13:53:47;15.30;99.90
21602;DHT22;10963;50.934;4.668;2023-08-06T13:56:12;15.20;99.90
21602;DHT22;10963;50.934;4.668;2023-08-06T13:58:43;15.20;99.90
21602;DHT22;10963;50.934;4.668;2023-08-06T14:01:16;15.00;99.90
21602;DHT22;10963;50.934;4.668;2023-08-06T14:03:44;15.00;99.90
21602;DHT22;10963;50.934;4.668;2023-08-06T14:06:12;15.20;99.90
21602;DHT22;10963;50.934;4.668;2023-08-06T14:08:41;15.10;99.90
21602;DHT22;10963;50.934;4.668;2023-08-06T14:11:09;15.10;99.90
21602;DHT22;10963;50.934;4.668;2023-08-06T14:13:36;15.10;99.90
21602;DHT22;10963;50.934;4.668;2023-08-06T14:16:01;15.10;99.90
21602;DHT22;10963;50.934;4.668;2023-08-06T14:18:27;15.10;99.90
21602;DHT22;10963;50.934;4.668;2023-08-06T14:20:57;15.10;99.90
21602;DHT22;10963;50.934;4.668;2023-08-06T14:23:23;15.20;99.90
21602;DHT22;10963;50.934;4.668;2023-08-06T14:25:49;15.20;99.90
21602;DHT22;10963;50.934;4.668;2023-08-06T14:28:15;15.20;99.90
21602;DHT22;10963;50.934;4.668;2023-08-06T14:30:40;15.10;99.90
21602;DHT22;10963;50.934;4.668;2023-08-06T14:33:06;15.10;99.90
21602;DHT22;10963;50.934;4.668;2023-08-06T14:35:34;15.10;99.90
21602;DHT22;10963;50.934;4.668;2023-08-06T14:38:00;15.20;99.90
21602;DHT22;10963;50.934;4.668;2023-08-06T14:40:26;15.10;99.90
21602;DHT22;10963;50.934;4.668;2023-08-06T14:42:54;15.20;99.90
21602;DHT22;10963;50.934;4.668;2023-08-06T14:45:19;15.40;99.90
21602;DHT22;10963;50.934;4.668;2023-08-06T14:47:45;15.40;99.90
21602;DHT22;10963;50.934;4.668;2023-08-06T14:50:13;15.60;99.90
21602;DHT22;10963;50.934;4.668;2023-08-06T14:52:43;15.70;99.90
21602;DHT22;10963;50.934;4.668;2023-08-06T14:55:09;15.60;99.90
21602;DHT22;10963;50.934;4.668;2023-08-06T14:57:35;15.80;99.90
21602;DHT22;10963;50.934;4.668;2023-08-06T15:00:00;15.90;99.90
21602;DHT22;10963;50.934;4.668;2023-08-06T15:02:28;15.80;99.90
21602;DHT22;10963;50.934;4.668;2023-08-06T15:04:59;15.90;99.90
21602;DHT22;10963;50.934;4.668;2023-08-06T15:07:24;15.80;99.90
21602;DHT22;10963;50.934;4.668;2023-08-06T15:09:50;15.70;99.90
21602;DHT22;10963;50.934;4.668;2023-08-06T15:12:16;15.80;99.90
21602;DHT22;10963;50.934;4.668;2023-08-06T15:14:42;15.80;99.90
21602;DHT22;10963;50.934;4.668;2023-08-06T15:17:11;15.70;99.90
21602;DHT22;10963;50.934;4.668;2023-08-06T15:19:36;15.40;99.90
21602;DHT22;10963;50.934;4.668;2023-08-06T15:22:05;15.20;99.90
21602;DHT22;10963;50.934;4.668;2023-08-06T15:24:30;15.40;99.90
21602;DHT22;10963;50.934;4.668;2023-08-06T15:26:59;15.40;99.90
21602;DHT22;10963;50.934;4.668;2023-08-06T15:29:24;15.30;99.90
21602;DHT22;10963;50.934;4.668;2023-08-06T15:31:52;15.30;99.90
21602;DHT22;10963;50.934;4.668;2023-08-06T15:34:20;15.50;99.90
21602;DHT22;10963;50.934;4.668;2023-08-06T15:36:46;15.70;99.90
21602;DHT22;10963;50.934;4.668;2023-08-06T15:39:12;15.70;99.90
21602;DHT22;10963;50.934;4.668;2023-08-06T15:41:37;15.70;99.90
21602;DHT22;10963;50.934;4.668;2023-08-06T15:44:08;15.80;99.90